Time;durP1;ratioP1;P1;durP2;ratioP2;P2;SDS_P1;SDS_P2;PMS_P1;PMS_P2;Temp;Humidity;BMP_temperature;BMP_pressure;BME280_temperature;BME280_humidity;BME280_pressure;Samples;Min_cycle;Max_cycle;Signal;HPM_P1;HPM_P2
2021/12/05 00:22:37;;;;;;;7.75;2.30;;;5.10;99.90;;;;;;5075198;28;20174;-44
2021/12/05 00:25:06;;;;;;;5.93;2.35;;;5.20;99.90;;;;;;5074646;28;20197;-44
2021/12/05 00:27:38;;;;;;;13.27;2.47;;;5.10;99.90;;;;;;5074818;28;20248;-44
2021/12/05 00:36:15;;;;;;;9.93;2.40;;;5.00;99.90;;;;;;5074736;28;20618;-45
2021/12/05 00:38:51;;;;;;;8.55;2.70;;;5.00;99.90;;;;;;5073984;28;20234;-44
2021/12/05 00:49:12;;;;;;;8.23;2.00;;;5.00;99.90;;;;;;5074525;28;20634;-44
2021/12/05 00:57:24;;;;;;;9.32;2.20;;;4.90;99.90;;;;;;5074531;28;20169;-44
2021/12/05 00:59:58;;;;;;;7.75;2.20;;;4.90;99.90;;;;;;5073533;28;20185;-43
2021/12/05 01:02:43;;;;;;;9.00;2.10;;;4.90;99.90;;;;;;5074234;28;20169;-44
2021/12/05 01:10:50;;;;;;;10.55;2.38;;;4.90;99.90;;;;;;5073586;28;20243;-44
2021/12/05 01:16:04;;;;;;;12.68;2.88;;;4.90;99.90;;;;;;5074014;28;20342;-45
2021/12/05 01:18:30;;;;;;;14.48;3.03;;;4.90;99.90;;;;;;5073674;28;20155;-43
2021/12/05 01:21:00;;;;;;;11.60;2.15;;;4.90;99.90;;;;;;5074073;28;20174;-45
2021/12/05 01:23:38;;;;;;;8.48;2.63;;;4.80;99.90;;;;;;5073667;28;20205;-43
2021/12/05 01:26:09;;;;;;;5.45;1.90;;;4.80;99.90;;;;;;5073746;28;20162;-44
2021/12/05 01:32:02;;;;;;;12.05;2.22;;;4.80;99.90;;;;;;5050432;28;20181;-44
2021/12/05 01:34:47;;;;;;;13.80;2.28;;;4.80;99.90;;;;;;5073526;28;20224;-43
2021/12/05 01:37:37;;;;;;;12.98;3.08;;;4.80;99.90;;;;;;5073425;28;20178;-44
2021/12/05 01:40:32;;;;;;;13.90;2.63;;;4.90;99.90;;;;;;5073414;28;20174;-44
2021/12/05 01:58:42;;;;;;;9.98;2.08;;;4.90;99.90;;;;;;5072898;28;20169;-43
2021/12/05 02:39:30;;;;;;;13.90;1.95;;;4.70;99.90;;;;;;5072426;28;20166;-44
2021/12/05 02:41:57;;;;;;;6.90;2.22;;;4.80;99.90;;;;;;5072355;28;20209;-44
2021/12/05 02:44:24;;;;;;;9.38;2.22;;;4.80;99.90;;;;;;5072291;28;20194;-44
2021/12/05 02:47:04;;;;;;;8.07;2.22;;;4.80;99.90;;;;;;5072038;28;20629;-44
2021/12/05 02:49:33;;;;;;;9.80;2.00;;;4.80;99.90;;;;;;5071941;28;20223;-43
2021/12/05 02:52:05;;;;;;;14.02;2.55;;;4.70;99.90;;;;;;5072022;28;20169;-44
2021/12/05 02:54:38;;;;;;;11.40;3.08;;;4.80;99.90;;;;;;5072293;28;20174;-44
2021/12/05 02:57:05;;;;;;;5.03;2.05;;;4.80;99.90;;;;;;5072235;28;20202;-44
2021/12/05 03:02:12;;;;;;;14.95;4.30;;;4.80;99.90;;;;;;5072190;28;20200;-44
2021/12/05 03:04:43;;;;;;;13.88;3.83;;;4.80;99.90;;;;;;5072094;28;20296;-44
2021/12/05 03:07:10;;;;;;;20.38;4.80;;;4.80;99.90;;;;;;5071790;28;20555;-43
2021/12/05 03:09:38;;;;;;;11.30;3.00;;;4.80;99.90;;;;;;5071673;28;20720;-43
2021/12/05 03:12:10;;;;;;;11.23;2.58;;;4.80;99.90;;;;;;5071760;28;20169;-44
2021/12/05 03:14:36;;;;;;;16.58;2.97;;;4.70;99.90;;;;;;5071774;28;20174;-44
2021/12/05 03:17:02;;;;;;;12.85;3.03;;;4.70;99.90;;;;;;5071739;28;20667;-44
2021/12/05 03:19:28;;;;;;;10.25;2.47;;;4.70;99.90;;;;;;5072050;28;20178;-43
2021/12/05 03:21:53;;;;;;;6.28;2.20;;;4.70;99.90;;;;;;5072668;28;20170;-44
2021/12/05 03:24:22;;;;;;;13.18;3.30;;;4.70;99.90;;;;;;5075697;28;20214;-43
2021/12/05 03:26:51;;;;;;;16.58;3.30;;;4.70;99.90;;;;;;5075870;28;20196;-44
2021/12/05 03:29:20;;;;;;;14.05;3.83;;;4.80;99.90;;;;;;5075679;28;20170;-44
2021/12/05 03:31:46;;;;;;;12.00;3.53;;;4.80;99.90;;;;;;5075925;28;20533;-43
2021/12/05 03:34:16;;;;;;;15.25;4.00;;;4.70;99.90;;;;;;5075791;28;20177;-44
2021/12/05 03:36:47;;;;;;;13.15;3.30;;;4.80;99.90;;;;;;5075552;28;20172;-44
2021/12/05 03:39:13;;;;;;;20.02;3.88;;;4.80;99.90;;;;;;5075443;28;20177;-43
2021/12/05 03:41:41;;;;;;;15.77;4.18;;;4.80;99.90;;;;;;5075701;28;20213;-43
2021/12/05 03:44:11;;;;;;;11.65;3.45;;;4.80;99.90;;;;;;5075406;28;20202;-44
2021/12/05 03:46:38;;;;;;;14.70;3.85;;;4.70;99.90;;;;;;5075622;28;20243;-44
2021/12/05 03:49:07;;;;;;;9.60;2.63;;;4.70;99.90;;;;;;5075626;28;20170;-44
2021/12/05 03:51:37;;;;;;;16.58;4.28;;;4.80;99.90;;;;;;5075167;28;20170;-45
2021/12/05 03:54:05;;;;;;;14.30;5.78;;;4.70;99.90;;;;;;5075187;28;20165;-44
2021/12/05 03:56:31;;;;;;;13.98;4.30;;;4.70;99.90;;;;;;5075378;28;20260;-43
2021/12/05 03:58:57;;;;;;;13.45;3.75;;;4.70;99.90;;;;;;5075077;28;20207;-44
2021/12/05 04:01:25;;;;;;;14.93;4.20;;;4.70;99.90;;;;;;5075702;28;20198;-44
2021/12/05 04:03:52;;;;;;;13.40;4.18;;;4.70;99.90;;;;;;5075444;28;20267;-43
2021/12/05 04:06:20;;;;;;;12.48;4.15;;;4.70;99.90;;;;;;5075096;28;20173;-44
2021/12/05 04:08:46;;;;;;;12.95;3.88;;;4.70;99.90;;;;;;5074656;28;20229;-44
2021/12/05 04:11:23;;;;;;;8.40;3.13;;;4.80;99.90;;;;;;5090532;28;20684;-44
2021/12/05 04:13:49;;;;;;;13.57;3.30;;;4.80;99.90;;;;;;5075147;28;20177;-44
2021/12/05 04:16:15;;;;;;;17.88;2.33;;;4.80;99.90;;;;;;5074801;28;20166;-43
2021/12/05 04:18:41;;;;;;;8.38;2.85;;;4.80;99.90;;;;;;5074721;28;20597;-44
2021/12/05 04:21:07;;;;;;;13.15;4.45;;;4.80;99.90;;;;;;5074712;28;20173;-44
2021/12/05 04:23:34;;;;;;;10.80;4.28;;;4.70;99.90;;;;;;5074825;28;20202;-44
2021/12/05 04:26:00;;;;;;;9.98;3.80;;;4.70;99.90;;;;;;5074750;28;20168;-44
2021/12/05 04:28:27;;;;;;;5.75;2.53;;;4.70;99.90;;;;;;5075174;28;20177;-44
2021/12/05 04:30:53;;;;;;;6.65;2.83;;;4.70;99.90;;;;;;5074908;28;20166;-44
2021/12/05 04:33:18;;;;;;;5.22;1.98;;;4.70;99.90;;;;;;5074264;28;20177;-43
2021/12/05 04:35:45;;;;;;;10.48;2.85;;;4.60;99.90;;;;;;5072937;28;20174;-43
2021/12/05 04:38:10;;;;;;;11.52;2.53;;;4.50;99.90;;;;;;5074542;28;20172;-44
2021/12/05 04:40:36;;;;;;;5.65;2.28;;;4.60;99.90;;;;;;5074366;28;20162;-45
2021/12/05 04:43:04;;;;;;;7.90;1.73;;;4.60;99.90;;;;;;5074362;28;20205;-44
2021/12/05 04:45:32;;;;;;;4.95;1.90;;;4.60;99.90;;;;;;5074550;28;20166;-44
2021/12/05 04:47:58;;;;;;;5.40;2.67;;;4.60;99.90;;;;;;5074405;28;20181;-43
2021/12/05 04:50:26;;;;;;;7.95;2.65;;;4.50;99.90;;;;;;5074501;28;20189;-44
2021/12/05 04:52:55;;;;;;;5.38;2.00;;;4.60;99.90;;;;;;5074503;28;20622;-44
2021/12/05 04:55:21;;;;;;;7.25;2.60;;;4.50;99.90;;;;;;5074383;28;20162;-43
2021/12/05 04:57:48;;;;;;;5.97;2.67;;;4.50;99.90;;;;;;5074298;28;20204;-44
2021/12/05 05:00:21;;;;;;;11.25;4.07;;;4.50;99.90;;;;;;5073968;28;20185;-44
2021/12/05 05:02:46;;;;;;;8.63;2.50;;;4.50;99.90;;;;;;5073937;28;20165;-43
2021/12/05 05:05:13;;;;;;;11.05;2.83;;;4.40;99.90;;;;;;5074119;28;20536;-44
2021/12/05 05:07:42;;;;;;;11.13;4.00;;;4.20;99.90;;;;;;5074106;28;20247;-44
2021/12/05 05:10:12;;;;;;;16.60;3.80;;;4.20;99.90;;;;;;5073765;28;20355;-44
2021/12/05 05:12:38;;;;;;;6.75;2.25;;;4.30;99.90;;;;;;5073836;28;20241;-44
2021/12/05 05:15:04;;;;;;;8.77;2.33;;;4.10;99.90;;;;;;5073970;28;20635;-44
2021/12/05 05:17:30;;;;;;;7.57;1.98;;;4.00;99.90;;;;;;5073739;28;20162;-43
2021/12/05 05:20:00;;;;;;;5.90;2.03;;;4.00;99.90;;;;;;5073945;28;20165;-44
2021/12/05 05:22:45;;;;;;;9.20;2.38;;;3.40;99.90;;;;;;5073686;28;20638;-44
2021/12/05 05:44:44;;;;;;;4.10;1.85;;;3.70;99.90;;;;;;5073682;28;20222;-43
2021/12/05 05:49:36;;;;;;;5.80;1.50;;;3.70;99.90;;;;;;5073603;28;20219;-43
2021/12/05 05:52:02;;;;;;;3.78;2.35;;;3.70;99.90;;;;;;5073073;28;20162;-44
2021/12/05 05:54:27;;;;;;;6.07;2.05;;;3.70;99.90;;;;;;5072885;28;20177;-43
2021/12/05 05:56:59;;;;;;;4.60;1.92;;;3.80;99.90;;;;;;5073476;28;20166;-43
2021/12/05 05:59:30;;;;;;;5.50;2.22;;;3.80;99.90;;;;;;5073380;28;20177;-43
2021/12/05 06:03:20;;;;;;;6.93;2.15;;;3.80;99.90;;;;;;5073094;28;20176;-43
2021/12/05 06:04:45;;;;;;;6.00;2.00;;;3.80;99.90;;;;;;5072620;28;20217;-43
2021/12/05 06:07:12;;;;;;;6.68;2.35;;;3.90;99.90;;;;;;5072774;28;20166;-43
2021/12/05 06:09:37;;;;;;;7.70;2.13;;;3.80;99.90;;;;;;5072526;28;20645;-43
2021/12/05 06:12:04;;;;;;;4.60;2.00;;;3.90;99.90;;;;;;5072895;28;20166;-43
2021/12/05 06:14:30;;;;;;;5.63;1.48;;;3.90;99.90;;;;;;5072471;28;20240;-43
2021/12/05 06:16:56;;;;;;;3.72;1.90;;;3.80;99.90;;;;;;5072677;28;20202;-43
2021/12/05 06:19:21;;;;;;;6.07;1.83;;;3.80;99.90;;;;;;5073039;28;20206;-44
2021/12/05 06:21:49;;;;;;;10.38;3.67;;;3.80;99.90;;;;;;5072414;28;20162;-44
2021/12/05 06:24:15;;;;;;;7.93;2.55;;;3.80;99.90;;;;;;5072578;28;20255;-43
2021/12/05 06:26:41;;;;;;;5.45;1.92;;;3.70;99.90;;;;;;5071915;28;20254;-44
2021/12/05 06:29:17;;;;;;;13.85;5.00;;;3.70;99.90;;;;;;5072343;28;20170;-44
2021/12/05 06:31:59;;;;;;;6.90;2.50;;;3.70;99.90;;;;;;5072439;28;20176;-43
2021/12/05 06:37:43;;;;;;;6.60;2.30;;;3.70;99.90;;;;;;5072109;28;20591;-44
2021/12/05 06:40:23;;;;;;;3.22;1.60;;;3.70;99.90;;;;;;5072091;28;20180;-44
2021/12/05 06:48:42;;;;;;;8.80;3.60;;;3.60;99.90;;;;;;5049136;28;20193;-45
2021/12/05 06:51:09;;;;;;;6.35;3.03;;;3.60;99.90;;;;;;5072002;28;20661;-44
2021/12/05 06:53:35;;;;;;;4.15;2.08;;;3.50;99.90;;;;;;5072284;28;20534;-44
2021/12/05 06:56:01;;;;;;;4.68;2.63;;;3.60;99.90;;;;;;5070981;28;20252;-45
2021/12/05 06:58:26;;;;;;;7.38;1.95;;;3.60;99.90;;;;;;5070550;28;20170;-43
2021/12/05 07:00:52;;;;;;;6.35;1.85;;;3.60;99.90;;;;;;5070881;28;20315;-44
2021/12/05 07:03:17;;;;;;;4.72;1.73;;;3.60;99.90;;;;;;5070690;28;20194;-44
2021/12/05 07:05:52;;;;;;;2.28;1.67;;;3.70;99.90;;;;;;5070802;28;20170;-44
2021/12/05 07:08:20;;;;;;;6.88;2.20;;;3.70;99.90;;;;;;5070539;28;20165;-45
2021/12/05 07:11:10;;;;;;;5.28;1.90;;;3.70;99.90;;;;;;5069209;28;20281;-44
2021/12/05 07:16:37;;;;;;;7.53;1.83;;;3.60;99.90;;;;;;5070831;28;20204;-44
2021/12/05 07:19:19;;;;;;;6.75;2.00;;;3.60;99.90;;;;;;5070473;28;20712;-44
2021/12/05 07:21:51;;;;;;;7.50;2.92;;;3.60;99.90;;;;;;5070303;28;20637;-46
2021/12/05 07:42:51;;;;;;;4.30;2.15;;;3.90;99.90;;;;;;5070118;28;20197;-44
2021/12/05 07:45:22;;;;;;;6.25;2.22;;;4.00;99.90;;;;;;5070214;28;20197;-44
2021/12/05 07:47:51;;;;;;;8.55;2.30;;;4.00;99.90;;;;;;5069058;28;20191;-44
2021/12/05 07:50:19;;;;;;;4.43;2.47;;;4.00;99.90;;;;;;5070218;28;20170;-44
2021/12/05 07:52:50;;;;;;;4.93;2.30;;;4.10;99.90;;;;;;5070146;28;20174;-45
2021/12/05 07:55:22;;;;;;;4.07;1.90;;;4.10;99.90;;;;;;5070154;28;20700;-44
2021/12/05 08:14:42;;;;;;;4.90;1.95;;;4.10;99.90;;;;;;5070536;28;20189;-45
2021/12/05 08:17:16;;;;;;;6.82;3.85;;;4.20;99.90;;;;;;5073797;28;20181;-45
2021/12/05 08:19:41;;;;;;;5.95;3.10;;;4.20;99.90;;;;;;5073376;28;20627;-45
2021/12/05 08:22:07;;;;;;;8.60;2.97;;;4.30;99.90;;;;;;5073512;28;20166;-44
2021/12/05 08:24:35;;;;;;;5.07;2.70;;;4.30;99.90;;;;;;5073536;28;20201;-46
2021/12/05 08:27:04;;;;;;;5.53;2.47;;;4.40;99.90;;;;;;5073288;28;20315;-45
2021/12/05 08:29:42;;;;;;;5.13;2.30;;;4.40;99.90;;;;;;5073476;28;20174;-45
2021/12/05 08:32:23;;;;;;;3.10;2.53;;;4.40;99.90;;;;;;5073502;28;20239;-45
2021/12/05 08:35:10;;;;;;;14.18;5.30;;;4.50;99.90;;;;;;5073431;28;20311;-45
2021/12/05 08:38:12;;;;;;;5.85;2.22;;;4.40;99.90;;;;;;5072168;28;20618;-45
2021/12/05 08:43:37;;;;;;;6.80;2.65;;;4.40;99.90;;;;;;5073187;28;20193;-46
2021/12/05 09:22:11;;;;;;;12.75;3.80;;;5.00;99.90;;;;;;5069747;28;20307;-45
2021/12/05 09:40:28;;;;;;;2.03;1.80;;;5.00;99.90;;;;;;5071959;28;20185;-45
2021/12/05 09:51:25;;;;;;;5.13;2.17;;;5.10;99.90;;;;;;5071711;28;20181;-45
2021/12/05 10:10:17;;;;;;;3.30;2.00;;;5.30;99.90;;;;;;5071383;28;20693;-46
2021/12/05 10:15:52;;;;;;;5.07;1.98;;;5.40;99.90;;;;;;5071601;28;20169;-47
2021/12/05 10:37:46;;;;;;;3.55;2.45;;;5.50;99.90;;;;;;5071135;28;20166;-46
2021/12/05 10:40:19;;;;;;;4.80;2.72;;;5.50;99.90;;;;;;5070838;28;20169;-45
2021/12/05 10:42:51;;;;;;;7.65;4.05;;;5.60;99.90;;;;;;5071081;28;20196;-46
2021/12/05 10:45:20;;;;;;;14.63;6.85;;;5.50;99.90;;;;;;5071093;28;20178;-45
2021/12/05 10:47:52;;;;;;;48.00;24.50;;;5.60;99.90;;;;;;5070749;28;20231;-45
2021/12/05 10:50:26;;;;;;;11.18;6.35;;;5.60;99.90;;;;;;5070750;28;20228;-45
2021/12/05 10:53:20;;;;;;;6.35;4.00;;;5.70;99.90;;;;;;5071054;28;20169;-45
2021/12/05 10:55:46;;;;;;;20.40;10.23;;;5.80;99.90;;;;;;5070735;28;20162;-45
2021/12/05 10:58:11;;;;;;;3.05;2.28;;;5.90;99.90;;;;;;5070819;28;20654;-45
2021/12/05 11:00:37;;;;;;;8.93;4.03;;;5.90;99.90;;;;;;5070677;28;20238;-47
2021/12/05 11:03:32;;;;;;;3.78;1.80;;;5.90;99.90;;;;;;5070802;28;20205;-46
2021/12/05 11:05:58;;;;;;;4.40;2.30;;;6.00;99.90;;;;;;5065752;28;20300;-45
2021/12/05 11:08:33;;;;;;;7.30;5.72;;;5.70;99.90;;;;;;5070847;28;20688;-46
2021/12/05 11:11:13;;;;;;;7.65;5.22;;;6.10;99.90;;;;;;5070833;28;20189;-46
2021/12/05 11:13:43;;;;;;;8.88;6.00;;;6.20;99.90;;;;;;5070664;28;20173;-45
2021/12/05 11:16:41;;;;;;;7.47;4.60;;;6.20;99.90;;;;;;5070688;28;20306;-46
2021/12/05 11:19:11;;;;;;;5.78;2.38;;;6.20;99.90;;;;;;5070448;28;20528;-45
2021/12/05 11:21:46;;;;;;;7.13;5.18;;;6.10;99.90;;;;;;5070491;28;20166;-46
2021/12/05 11:24:19;;;;;;;4.13;2.15;;;6.20;99.90;;;;;;5070194;28;20209;-45
2021/12/05 11:27:01;;;;;;;6.82;4.28;;;6.20;99.90;;;;;;5070343;28;20520;-45
2021/12/05 11:29:48;;;;;;;4.35;3.35;;;6.30;99.90;;;;;;5070605;28;20170;-46
2021/12/05 11:32:21;;;;;;;2.90;2.13;;;6.30;99.90;;;;;;5070299;28;20166;-45
2021/12/05 11:34:48;;;;;;;4.63;2.13;;;6.40;99.90;;;;;;5070338;28;20158;-45
2021/12/05 11:37:14;;;;;;;3.38;1.38;;;6.40;99.90;;;;;;5070551;28;20177;-46
2021/12/05 11:39:40;;;;;;;3.40;1.30;;;6.30;99.90;;;;;;5070271;28;20186;-45
2021/12/05 11:42:12;;;;;;;3.13;2.72;;;6.40;99.90;;;;;;5070344;28;20218;-46
2021/12/05 11:44:39;;;;;;;2.95;1.50;;;6.60;99.90;;;;;;5071897;28;20650;-45
2021/12/05 11:47:14;;;;;;;1.52;1.13;;;6.70;99.90;;;;;;5074453;28;20239;-46
2021/12/05 11:49:39;;;;;;;3.35;1.77;;;6.70;99.90;;;;;;5073933;28;20553;-44
2021/12/05 11:52:05;;;;;;;1.90;1.33;;;6.70;99.90;;;;;;5073640;28;20168;-45
2021/12/05 11:54:37;;;;;;;3.25;1.55;;;6.70;99.90;;;;;;5074196;28;20864;-45
2021/12/05 11:57:11;;;;;;;3.17;1.55;;;6.80;99.90;;;;;;5073485;28;20177;-45
2021/12/05 11:59:43;;;;;;;1.23;1.13;;;7.00;99.90;;;;;;5073585;28;20174;-45
2021/12/05 12:02:16;;;;;;;1.33;1.05;;;6.90;99.90;;;;;;5073819;28;20170;-45
2021/12/05 12:04:51;;;;;;;2.38;1.60;;;7.00;99.90;;;;;;5073779;28;20693;-44
2021/12/05 12:07:19;;;;;;;3.38;2.30;;;6.90;99.90;;;;;;5073737;28;20173;-45
2021/12/05 12:09:47;;;;;;;2.95;1.75;;;6.90;99.90;;;;;;5073259;28;20585;-45
2021/12/05 12:12:14;;;;;;;2.90;1.40;;;7.00;99.90;;;;;;5073430;28;20168;-45
2021/12/05 12:14:39;;;;;;;2.08;1.15;;;6.90;99.90;;;;;;5072638;28;20177;-45
2021/12/05 12:17:10;;;;;;;1.55;1.25;;;6.90;99.90;;;;;;5073251;28;20257;-45
2021/12/05 12:19:36;;;;;;;1.73;1.60;;;7.00;99.90;;;;;;5073289;28;20200;-46
2021/12/05 12:22:04;;;;;;;1.85;0.90;;;7.00;99.90;;;;;;5073729;28;20261;-46
2021/12/05 12:24:31;;;;;;;1.65;1.00;;;7.00;99.90;;;;;;5073336;28;20693;-45
2021/12/05 12:26:57;;;;;;;2.63;1.00;;;7.00;99.90;;;;;;5073014;28;20622;-44
2021/12/05 12:29:24;;;;;;;3.15;1.08;;;6.90;99.90;;;;;;5073637;28;20178;-45
2021/12/05 12:31:52;;;;;;;2.90;1.10;;;6.90;99.90;;;;;;5073489;28;20257;-46
2021/12/05 12:34:21;;;;;;;1.58;1.27;;;6.90;99.90;;;;;;5073169;28;20166;-45
2021/12/05 12:36:50;;;;;;;4.68;2.30;;;6.80;99.90;;;;;;5073118;28;20208;-46
2021/12/05 12:39:15;;;;;;;5.65;3.25;;;6.80;99.90;;;;;;5073111;28;20288;-46
2021/12/05 12:41:42;;;;;;;6.88;4.00;;;6.80;99.90;;;;;;5073403;28;20527;-46
2021/12/05 12:44:08;;;;;;;2.08;1.85;;;6.90;99.90;;;;;;5072968;28;20228;-46
2021/12/05 12:46:55;;;;;;;7.22;2.00;;;6.80;99.90;;;;;;5073113;28;20613;-45
2021/12/05 12:49:20;;;;;;;1.35;1.17;;;6.80;99.90;;;;;;5073296;28;20216;-45
2021/12/05 12:52:05;;;;;;;2.85;2.20;;;6.90;99.90;;;;;;5072842;28;20625;-45
2021/12/05 12:54:44;;;;;;;2.88;1.88;;;6.90;99.90;;;;;;5072467;28;20173;-45
2021/12/05 12:57:15;;;;;;;1.30;1.20;;;6.90;99.90;;;;;;5073261;28;20177;-45
2021/12/05 13:00:11;;;;;;;2.00;1.00;;;6.70;99.90;;;;;;5073118;28;20188;-45
2021/12/05 13:11:09;;;;;;;2.05;1.40;;;7.00;99.90;;;;;;5072976;28;20240;-45
2021/12/05 13:13:37;;;;;;;2.17;1.08;;;7.00;99.90;;;;;;5072736;28;20671;-45
2021/12/05 13:16:29;;;;;;;3.40;1.67;;;6.90;99.90;;;;;;5072596;28;20272;-45
2021/12/05 13:19:14;;;;;;;1.92;1.50;;;7.00;99.90;;;;;;5072763;28;20166;-45
2021/12/05 13:21:43;;;;;;;6.05;2.00;;;7.00;99.90;;;;;;5072364;28;20235;-45
2021/12/05 13:24:27;;;;;;;3.63;1.60;;;7.00;99.90;;;;;;5072077;28;20198;-45
2021/12/05 13:27:02;;;;;;;2.35;1.27;;;7.00;99.90;;;;;;5072724;28;20200;-44
2021/12/05 13:29:31;;;;;;;8.40;4.93;;;6.90;99.90;;;;;;5072429;28;20176;-44
2021/12/05 13:32:04;;;;;;;3.28;1.50;;;6.90;99.90;;;;;;5073066;28;20194;-44
2021/12/05 13:34:40;;;;;;;3.38;1.67;;;6.90;99.90;;;;;;5072745;28;20170;-45
2021/12/05 13:37:05;;;;;;;4.20;2.42;;;6.90;99.90;;;;;;5073252;28;20166;-44
2021/12/05 13:39:39;;;;;;;3.45;1.90;;;6.90;99.90;;;;;;5073192;28;20177;-45
2021/12/05 13:42:16;;;;;;;4.28;1.80;;;6.80;99.90;;;;;;5072567;28;20170;-44
2021/12/05 13:45:06;;;;;;;4.97;2.83;;;6.90;99.90;;;;;;5072951;28;20217;-44
2021/12/05 13:47:50;;;;;;;3.70;2.05;;;6.90;99.90;;;;;;5072954;28;20186;-44
2021/12/05 13:50:19;;;;;;;4.70;2.60;;;6.80;99.90;;;;;;5072865;28;20166;-45
2021/12/05 13:52:55;;;;;;;4.40;2.88;;;6.90;99.90;;;;;;5072569;28;20288;-44
2021/12/05 13:56:02;;;;;;;5.00;2.95;;;6.80;99.90;;;;;;5071899;28;20303;-44
2021/12/05 13:58:46;;;;;;;2.90;2.00;;;6.90;99.90;;;;;;5072511;28;20174;-43
2021/12/05 14:01:34;;;;;;;3.35;1.85;;;6.80;99.90;;;;;;5072378;28;20174;-43
2021/12/05 14:04:23;;;;;;;4.55;1.88;;;6.90;99.90;;;;;;5072474;28;20288;-43
2021/12/05 14:07:01;;;;;;;4.30;1.45;;;6.90;99.90;;;;;;5071546;28;20637;-43
2021/12/05 14:09:34;;;;;;;3.63;1.63;;;6.90;99.90;;;;;;5071964;28;20671;-43
2021/12/05 14:12:08;;;;;;;4.90;1.90;;;6.90;99.90;;;;;;5072353;28;20166;-43
2021/12/05 14:14:48;;;;;;;5.50;1.60;;;6.90;99.90;;;;;;5072043;28;20705;-43
2021/12/05 14:17:20;;;;;;;3.33;1.70;;;6.80;99.90;;;;;;5072288;28;20256;-43
2021/12/05 14:20:02;;;;;;;3.08;1.30;;;6.90;99.90;;;;;;5072216;28;21097;-43
2021/12/05 14:22:37;;;;;;;2.92;1.15;;;6.90;99.90;;;;;;5072131;28;20173;-43
2021/12/05 14:25:09;;;;;;;2.95;2.03;;;6.80;99.90;;;;;;5071282;28;20298;-43
2021/12/05 14:27:42;;;;;;;2.60;1.50;;;6.80;99.90;;;;;;5072021;28;20174;-43
2021/12/05 14:30:15;;;;;;;4.57;1.80;;;6.70;99.90;;;;;;5071924;28;20165;-43
2021/12/05 14:32:43;;;;;;;4.93;2.15;;;6.70;99.90;;;;;;5070743;28;20172;-43
2021/12/05 14:35:25;;;;;;;3.50;2.00;;;6.80;99.90;;;;;;5071753;28;20296;-43
2021/12/05 14:37:53;;;;;;;4.10;1.77;;;6.70;99.90;;;;;;5071712;28;20170;-43
2021/12/05 14:40:30;;;;;;;3.00;1.20;;;6.70;99.90;;;;;;5071750;28;20166;-43
2021/12/05 14:43:03;;;;;;;1.92;1.45;;;6.80;99.90;;;;;;5072024;28;20211;-43
2021/12/05 14:45:31;;;;;;;2.20;1.77;;;6.80;99.90;;;;;;5071665;28;20173;-43
2021/12/05 14:48:02;;;;;;;2.88;1.40;;;6.80;99.90;;;;;;5075603;28;20280;-44
2021/12/05 14:50:33;;;;;;;4.60;2.55;;;6.80;99.90;;;;;;5070702;28;20207;-44
2021/12/05 14:53:02;;;;;;;4.65;1.40;;;6.80;99.90;;;;;;5081636;28;20252;-44
2021/12/05 14:55:31;;;;;;;3.10;1.00;;;6.80;99.90;;;;;;5091305;28;20173;-44
2021/12/05 14:58:03;;;;;;;1.55;1.15;;;6.70;99.90;;;;;;5091167;28;20183;-44
2021/12/05 15:00:35;;;;;;;1.73;1.17;;;6.70;99.90;;;;;;5089533;28;20636;-45
2021/12/05 15:03:04;;;;;;;1.40;1.08;;;6.70;99.90;;;;;;5091773;28;20759;-45
2021/12/05 15:05:30;;;;;;;3.20;1.95;;;6.70;99.90;;;;;;5074294;28;20185;-44
2021/12/05 15:08:01;;;;;;;4.65;3.85;;;6.70;99.90;;;;;;5071625;28;20162;-44
2021/12/05 15:10:26;;;;;;;3.72;2.15;;;6.70;99.90;;;;;;5087283;28;20189;-44
2021/12/05 15:12:54;;;;;;;2.08;1.55;;;6.60;99.90;;;;;;5092098;28;20222;-45
2021/12/05 15:15:22;;;;;;;2.15;1.30;;;6.60;99.90;;;;;;5075605;28;20578;-44
2021/12/05 15:17:48;;;;;;;2.55;0.88;;;6.50;99.90;;;;;;5071618;28;20178;-44
2021/12/05 15:20:22;;;;;;;1.83;1.30;;;6.40;99.90;;;;;;5089864;28;20169;-44
2021/12/05 15:22:54;;;;;;;1.55;1.00;;;6.30;99.90;;;;;;5095807;28;20161;-45
2021/12/05 15:25:24;;;;;;;1.40;1.13;;;6.20;99.90;;;;;;5080293;28;20181;-44
2021/12/05 15:27:49;;;;;;;3.90;1.20;;;6.20;99.90;;;;;;5075328;28;20161;-45
2021/12/05 15:30:30;;;;;;;2.05;0.95;;;6.10;99.90;;;;;;5080096;28;20181;-45
2021/12/05 15:33:01;;;;;;;4.15;1.52;;;6.10;99.90;;;;;;5081309;28;20252;-44
2021/12/05 15:35:27;;;;;;;2.00;1.50;;;6.10;99.90;;;;;;5095170;28;20172;-44
2021/12/05 15:38:02;;;;;;;2.58;2.00;;;6.10;99.90;;;;;;5077262;28;20170;-45
2021/12/05 15:40:29;;;;;;;1.63;1.52;;;6.10;99.90;;;;;;5075117;28;20536;-45
2021/12/05 15:43:01;;;;;;;4.82;2.25;;;6.00;99.90;;;;;;5074981;28;20173;-44
2021/12/05 15:45:27;;;;;;;6.85;3.28;;;6.00;99.90;;;;;;5075534;28;20211;-44
2021/12/05 15:47:52;;;;;;;4.10;3.15;;;6.10;99.90;;;;;;5075723;28;20174;-45
2021/12/05 15:50:20;;;;;;;22.35;19.80;;;6.10;99.90;;;;;;5075296;28;20177;-44
2021/12/05 15:52:55;;;;;;;9.45;8.50;;;6.10;99.90;;;;;;5075565;28;20170;-44
2021/12/05 15:55:24;;;;;;;4.95;1.98;;;6.10;99.90;;;;;;5075472;28;20173;-44
2021/12/05 15:58:03;;;;;;;5.88;2.80;;;6.10;99.90;;;;;;5075450;28;20193;-45
2021/12/05 16:00:32;;;;;;;9.25;4.35;;;6.00;99.90;;;;;;5075246;28;20166;-43
2021/12/05 16:03:11;;;;;;;6.57;4.03;;;6.00;99.90;;;;;;5074852;28;20166;-45
2021/12/05 16:05:38;;;;;;;4.15;1.85;;;6.00;99.90;;;;;;5074868;28;20177;-45
2021/12/05 16:08:08;;;;;;;1.98;1.60;;;6.00;99.90;;;;;;5074563;28;20166;-44
2021/12/05 16:10:38;;;;;;;1.38;1.23;;;6.00;99.90;;;;;;5074931;28;20561;-45
2021/12/05 16:13:31;;;;;;;1.45;1.30;;;6.00;99.90;;;;;;5075033;28;20166;-44
2021/12/05 16:16:15;;;;;;;2.50;2.30;;;6.00;99.90;;;;;;5066774;28;20181;-44
2021/12/05 16:18:44;;;;;;;6.13;1.52;;;6.00;99.90;;;;;;5074815;28;20181;-45
2021/12/05 16:21:16;;;;;;;4.32;3.35;;;6.00;99.90;;;;;;5074886;28;20174;-45
2021/12/05 16:23:41;;;;;;;2.30;1.60;;;6.00;99.90;;;;;;5074735;28;20366;-45
2021/12/05 16:26:09;;;;;;;2.30;2.10;;;6.00;99.90;;;;;;5074749;28;20174;-44
2021/12/05 16:28:50;;;;;;;2.03;1.70;;;6.00;99.90;;;;;;5074675;28;20621;-45
2021/12/05 16:31:26;;;;;;;2.05;1.17;;;6.00;99.90;;;;;;5073823;28;20197;-45
2021/12/05 16:33:56;;;;;;;2.03;1.42;;;5.90;99.90;;;;;;5074912;28;20215;-45
2021/12/05 16:36:38;;;;;;;4.70;2.97;;;5.90;99.90;;;;;;5074998;28;20198;-44
2021/12/05 16:39:11;;;;;;;7.55;4.43;;;5.90;99.90;;;;;;5074542;28;20172;-45
2021/12/05 16:41:37;;;;;;;4.78;2.85;;;5.90;99.90;;;;;;5074466;28;20215;-45
2021/12/05 16:44:19;;;;;;;4.20;2.83;;;5.90;99.90;;;;;;5073781;28;20241;-45
2021/12/05 16:46:58;;;;;;;2.92;2.38;;;5.90;99.90;;;;;;5074160;28;20169;-44
2021/12/05 16:49:32;;;;;;;3.17;2.05;;;5.90;99.90;;;;;;5074119;28;20173;-43
2021/12/05 16:52:08;;;;;;;7.70;5.65;;;5.90;99.90;;;;;;5074027;28;20170;-43
2021/12/05 16:54:36;;;;;;;12.05;8.55;;;5.90;99.90;;;;;;5073950;28;20170;-43
2021/12/05 16:57:10;;;;;;;9.25;5.90;;;5.90;99.90;;;;;;5074186;28;20190;-43
2021/12/05 16:59:55;;;;;;;4.25;2.08;;;6.00;99.90;;;;;;5073873;28;20196;-45
2021/12/05 17:02:24;;;;;;;3.13;2.63;;;5.90;99.90;;;;;;5073887;28;20610;-44
2021/12/05 17:05:21;;;;;;;6.85;5.90;;;6.00;99.90;;;;;;5073942;28;20217;-45
2021/12/05 17:10:44;;;;;;;7.68;3.40;;;6.00;99.90;;;;;;5073842;28;20186;-44
2021/12/05 17:13:14;;;;;;;4.70;4.00;;;6.00;99.90;;;;;;5073233;28;20162;-44
2021/12/05 17:16:07;;;;;;;8.43;4.85;;;6.00;99.90;;;;;;5073516;28;20181;-44
2021/12/05 17:18:37;;;;;;;20.60;7.57;;;6.00;99.90;;;;;;5073473;28;20163;-44
2021/12/05 17:21:12;;;;;;;12.98;5.60;;;6.00;99.90;;;;;;5072087;28;20645;-45
2021/12/05 17:23:45;;;;;;;13.07;6.07;;;6.00;99.90;;;;;;5073543;28;20280;-44
2021/12/05 17:26:20;;;;;;;14.60;7.40;;;6.00;99.90;;;;;;5073099;28;20166;-45
2021/12/05 17:29:01;;;;;;;10.30;5.93;;;6.00;99.90;;;;;;5072853;28;20176;-44
2021/12/05 17:31:39;;;;;;;8.73;4.95;;;6.00;99.90;;;;;;5071885;28;20174;-44
2021/12/05 17:34:08;;;;;;;7.97;4.70;;;6.00;99.90;;;;;;5073387;28;20197;-44
2021/12/05 17:36:35;;;;;;;11.95;6.18;;;6.00;99.90;;;;;;5073270;28;20174;-44
2021/12/05 17:39:13;;;;;;;13.43;5.80;;;6.00;99.90;;;;;;5072949;28;20162;-44
2021/12/05 17:41:40;;;;;;;14.55;5.43;;;6.00;99.90;;;;;;5071579;28;20659;-44
2021/12/05 17:44:07;;;;;;;10.15;5.53;;;5.90;99.90;;;;;;5073155;28;20224;-44
2021/12/05 17:46:34;;;;;;;8.35;3.75;;;5.90;99.90;;;;;;5072898;28;20691;-44
2021/12/05 17:49:04;;;;;;;9.50;4.55;;;5.80;99.90;;;;;;5072980;28;20166;-43
2021/12/05 17:51:37;;;;;;;5.32;3.85;;;5.90;99.90;;;;;;5072925;28;20166;-43
2021/12/05 17:54:05;;;;;;;8.52;5.28;;;5.80;99.90;;;;;;5072811;28;20198;-43
2021/12/05 17:56:49;;;;;;;10.63;6.07;;;5.90;99.90;;;;;;5072865;28;20166;-43
2021/12/05 18:04:33;;;;;;;4.95;3.03;;;5.90;99.90;;;;;;5072502;28;20251;-45
2021/12/05 18:06:59;;;;;;;4.97;2.83;;;6.00;99.90;;;;;;5072477;28;20166;-43
2021/12/05 18:09:25;;;;;;;6.15;2.72;;;5.90;99.90;;;;;;5072676;28;20218;-44
2021/12/05 18:11:51;;;;;;;4.60;3.45;;;5.90;99.90;;;;;;5072304;28;20583;-43
2021/12/05 18:14:17;;;;;;;5.25;3.22;;;5.90;99.90;;;;;;5072779;28;20170;-43
2021/12/05 18:16:43;;;;;;;3.70;3.30;;;5.90;99.90;;;;;;5072084;28;20158;-42